Monticello, Louisiana
Current Conditions -  °F | °C
As of 10:53 AM on Thursday 27 Nov 2014 (Local Time) from KTVR Reporting Station
Clear Clear  
Wind Chill: 44°   Ceiling: Unl
Heat Index: 48°   Visibility: 10mi
Dew Point: 30°   Wind: 9mph
Humidity: 50%   Direction: 10°N
Pressure: 30.53"   Gusts: 20mph
Location:  32.8408°N, 91.231°W
Report Text: KTVR 271653Z AUTO 01008G17KT 10SM CLR 09/M01 A3053 RMK AO2 SLP345 T00891011
Loading
Personal Weather Stations






























Interactive Weather Map New forecast layout! Learn more

10-Day Weather Forecast

Advertisements
Track Severe Weather on mobile